Terminal Aerodrome Forecast
Issued by NWS

Home | Current Version | Previous Version | Graphics & Text | Print | Product List | Glossary On
Versions: 1 2 3 4 5 6 7 8 9 10 11 12 13 14 15 16 17
000
FTUS43 KBIS 170537
TAFDIK
TAF
KDIK 170537Z 1706/1806 30012KT P6SM VCSH BKN060 OVC090
     FM170800 28012KT P6SM SCT060 OVC090
     FM171200 29006KT P6SM BKN120
     FM180400 28010KT P6SM BKN070=

USA.gov is the U.S. government's official web portal to all federal, state and local government web resources and services.